sensor_id;sensor_type;location;lat;lon;timestamp;P1;durP1;ratioP1;P2;durP2;ratioP2
70078;SDS011;57451;52.496;13.456;2023-02-11T00:02:08;42.35;;;18.38;;
70078;SDS011;57451;52.496;13.456;2023-02-11T00:04:36;42.45;;;18.25;;
70078;SDS011;57451;52.496;13.456;2023-02-11T00:07:03;43.23;;;19.87;;
70078;SDS011;57451;52.496;13.456;2023-02-11T00:09:31;39.83;;;18.20;;
70078;SDS011;57451;52.496;13.456;2023-02-11T00:11:59;41.53;;;18.55;;
70078;SDS011;57451;52.496;13.456;2023-02-11T00:14:26;40.70;;;18.70;;
70078;SDS011;57451;52.496;13.456;2023-02-11T00:16:53;38.92;;;15.45;;
70078;SDS011;57451;52.496;13.456;2023-02-11T00:19:20;39.13;;;17.93;;
70078;SDS011;57451;52.496;13.456;2023-02-11T00:21:47;40.17;;;18.15;;
70078;SDS011;57451;52.496;13.456;2023-02-11T00:24:15;40.60;;;17.45;;
70078;SDS011;57451;52.496;13.456;2023-02-11T00:26:43;37.72;;;14.93;;
70078;SDS011;57451;52.496;13.456;2023-02-11T00:29:10;43.92;;;19.15;;
70078;SDS011;57451;52.496;13.456;2023-02-11T00:31:39;40.43;;;18.87;;
70078;SDS011;57451;52.496;13.456;2023-02-11T00:34:06;39.50;;;16.50;;
70078;SDS011;57451;52.496;13.456;2023-02-11T00:36:34;37.83;;;16.60;;
70078;SDS011;57451;52.496;13.456;2023-02-11T00:39:01;38.95;;;17.52;;
70078;SDS011;57451;52.496;13.456;2023-02-11T00:41:28;35.97;;;15.25;;
70078;SDS011;57451;52.496;13.456;2023-02-11T00:43:59;35.60;;;17.00;;
70078;SDS011;57451;52.496;13.456;2023-02-11T00:46:27;44.55;;;18.20;;
70078;SDS011;57451;52.496;13.456;2023-02-11T00:48:55;43.65;;;18.38;;
70078;SDS011;57451;52.496;13.456;2023-02-11T00:51:23;42.90;;;17.58;;
70078;SDS011;57451;52.496;13.456;2023-02-11T00:53:51;37.08;;;15.68;;
70078;SDS011;57451;52.496;13.456;2023-02-11T00:56:19;43.33;;;17.23;;
70078;SDS011;57451;52.496;13.456;2023-02-11T00:58:46;38.60;;;16.13;;
70078;SDS011;57451;52.496;13.456;2023-02-11T01:01:16;36.60;;;16.23;;
70078;SDS011;57451;52.496;13.456;2023-02-11T01:03:44;39.92;;;18.05;;
70078;SDS011;57451;52.496;13.456;2023-02-11T01:06:11;37.53;;;15.25;;
70078;SDS011;57451;52.496;13.456;2023-02-11T01:08:39;35.53;;;16.67;;
70078;SDS011;57451;52.496;13.456;2023-02-11T01:11:10;36.60;;;15.88;;
70078;SDS011;57451;52.496;13.456;2023-02-11T01:13:39;38.33;;;16.33;;
70078;SDS011;57451;52.496;13.456;2023-02-11T01:16:07;40.00;;;17.33;;
70078;SDS011;57451;52.496;13.456;2023-02-11T01:18:37;37.42;;;17.17;;
70078;SDS011;57451;52.496;13.456;2023-02-11T01:21:05;38.37;;;16.23;;
70078;SDS011;57451;52.496;13.456;2023-02-11T01:23:33;38.22;;;16.13;;
70078;SDS011;57451;52.496;13.456;2023-02-11T01:26:00;40.22;;;17.15;;
70078;SDS011;57451;52.496;13.456;2023-02-11T01:28:28;37.67;;;16.08;;
70078;SDS011;57451;52.496;13.456;2023-02-11T01:30:59;40.88;;;16.55;;
70078;SDS011;57451;52.496;13.456;2023-02-11T01:33:27;38.33;;;16.87;;
70078;SDS011;57451;52.496;13.456;2023-02-11T01:35:58;42.63;;;16.13;;
70078;SDS011;57451;52.496;13.456;2023-02-11T01:38:27;39.25;;;15.68;;
70078;SDS011;57451;52.496;13.456;2023-02-11T01:40:55;34.47;;;14.02;;
70078;SDS011;57451;52.496;13.456;2023-02-11T01:43:23;33.10;;;14.25;;
70078;SDS011;57451;52.496;13.456;2023-02-11T01:46:00;37.50;;;16.03;;
70078;SDS011;57451;52.496;13.456;2023-02-11T01:48:31;31.27;;;13.18;;
70078;SDS011;57451;52.496;13.456;2023-02-11T01:51:03;33.17;;;15.50;;
70078;SDS011;57451;52.496;13.456;2023-02-11T01:53:34;35.05;;;15.95;;
70078;SDS011;57451;52.496;13.456;2023-02-11T01:56:23;33.83;;;13.75;;
70078;SDS011;57451;52.496;13.456;2023-02-11T01:59:12;38.50;;;16.47;;
70078;SDS011;57451;52.496;13.456;2023-02-11T02:01:44;29.27;;;12.80;;
70078;SDS011;57451;52.496;13.456;2023-02-11T02:04:16;41.10;;;17.00;;
70078;SDS011;57451;52.496;13.456;2023-02-11T02:06:48;35.65;;;16.40;;
70078;SDS011;57451;52.496;13.456;2023-02-11T02:09:22;35.95;;;15.98;;
70078;SDS011;57451;52.496;13.456;2023-02-11T02:11:52;37.83;;;16.20;;
70078;SDS011;57451;52.496;13.456;2023-02-11T02:14:19;37.00;;;16.42;;
70078;SDS011;57451;52.496;13.456;2023-02-11T02:16:47;36.15;;;17.48;;
70078;SDS011;57451;52.496;13.456;2023-02-11T02:19:29;34.58;;;16.65;;
70078;SDS011;57451;52.496;13.456;2023-02-11T02:22:28;38.63;;;15.90;;
70078;SDS011;57451;52.496;13.456;2023-02-11T02:25:19;36.00;;;15.17;;
70078;SDS011;57451;52.496;13.456;2023-02-11T02:28:12;30.80;;;14.02;;
70078;SDS011;57451;52.496;13.456;2023-02-11T02:31:12;39.47;;;17.02;;
70078;SDS011;57451;52.496;13.456;2023-02-11T02:34:01;36.65;;;15.88;;
70078;SDS011;57451;52.496;13.456;2023-02-11T02:36:33;35.78;;;16.10;;
70078;SDS011;57451;52.496;13.456;2023-02-11T02:39:06;40.57;;;17.20;;
70078;SDS011;57451;52.496;13.456;2023-02-11T02:41:37;36.70;;;15.23;;
70078;SDS011;57451;52.496;13.456;2023-02-11T02:44:05;38.30;;;16.13;;
70078;SDS011;57451;52.496;13.456;2023-02-11T02:46:34;35.97;;;15.82;;
70078;SDS011;57451;52.496;13.456;2023-02-11T02:49:05;39.33;;;18.60;;
70078;SDS011;57451;52.496;13.456;2023-02-11T02:51:42;33.00;;;14.97;;
70078;SDS011;57451;52.496;13.456;2023-02-11T02:57:22;37.10;;;17.35;;
70078;SDS011;57451;52.496;13.456;2023-02-11T03:00:03;36.70;;;16.50;;
70078;SDS011;57451;52.496;13.456;2023-02-11T03:02:41;41.38;;;16.50;;
70078;SDS011;57451;52.496;13.456;2023-02-11T03:05:20;39.57;;;17.30;;
70078;SDS011;57451;52.496;13.456;2023-02-11T03:07:57;37.10;;;17.85;;
70078;SDS011;57451;52.496;13.456;2023-02-11T03:10:30;37.53;;;16.90;;
70078;SDS011;57451;52.496;13.456;2023-02-11T03:13:00;35.42;;;14.63;;
70078;SDS011;57451;52.496;13.456;2023-02-11T03:15:29;42.90;;;17.95;;
70078;SDS011;57451;52.496;13.456;2023-02-11T03:18:02;38.63;;;17.87;;
70078;SDS011;57451;52.496;13.456;2023-02-11T03:20:34;39.03;;;17.60;;
70078;SDS011;57451;52.496;13.456;2023-02-11T03:23:04;41.28;;;17.65;;
70078;SDS011;57451;52.496;13.456;2023-02-11T03:25:37;38.90;;;17.85;;
70078;SDS011;57451;52.496;13.456;2023-02-11T03:28:11;40.55;;;18.33;;
70078;SDS011;57451;52.496;13.456;2023-02-11T03:30:44;41.67;;;18.43;;
70078;SDS011;57451;52.496;13.456;2023-02-11T03:33:17;40.10;;;17.08;;
70078;SDS011;57451;52.496;13.456;2023-02-11T03:35:52;45.75;;;18.95;;
70078;SDS011;57451;52.496;13.456;2023-02-11T03:38:23;43.53;;;19.02;;
70078;SDS011;57451;52.496;13.456;2023-02-11T03:40:55;36.80;;;16.60;;
70078;SDS011;57451;52.496;13.456;2023-02-11T03:43:25;46.60;;;19.90;;
70078;SDS011;57451;52.496;13.456;2023-02-11T03:45:57;39.75;;;18.55;;
70078;SDS011;57451;52.496;13.456;2023-02-11T03:48:26;42.47;;;18.95;;
70078;SDS011;57451;52.496;13.456;2023-02-11T03:50:58;43.22;;;19.42;;
70078;SDS011;57451;52.496;13.456;2023-02-11T03:53:28;43.42;;;20.02;;
70078;SDS011;57451;52.496;13.456;2023-02-11T03:55:55;35.47;;;15.73;;
70078;SDS011;57451;52.496;13.456;2023-02-11T03:58:25;39.83;;;18.38;;
70078;SDS011;57451;52.496;13.456;2023-02-11T04:00:53;37.42;;;19.17;;
70078;SDS011;57451;52.496;13.456;2023-02-11T04:03:20;42.78;;;19.08;;
70078;SDS011;57451;52.496;13.456;2023-02-11T04:05:47;42.13;;;19.73;;
70078;SDS011;57451;52.496;13.456;2023-02-11T04:08:16;41.20;;;19.53;;
70078;SDS011;57451;52.496;13.456;2023-02-11T04:10:44;43.30;;;19.20;;
70078;SDS011;57451;52.496;13.456;2023-02-11T04:13:11;44.00;;;20.55;;
70078;SDS011;57451;52.496;13.456;2023-02-11T04:15:38;40.17;;;17.65;;
70078;SDS011;57451;52.496;13.456;2023-02-11T04:18:05;38.50;;;20.08;;
70078;SDS011;57451;52.496;13.456;2023-02-11T04:20:32;46.03;;;19.07;;
70078;SDS011;57451;52.496;13.456;2023-02-11T04:23:00;42.78;;;19.33;;
70078;SDS011;57451;52.496;13.456;2023-02-11T04:25:28;42.80;;;20.48;;
70078;SDS011;57451;52.496;13.456;2023-02-11T04:27:55;43.13;;;20.27;;
70078;SDS011;57451;52.496;13.456;2023-02-11T04:30:23;31.85;;;14.80;;
70078;SDS011;57451;52.496;13.456;2023-02-11T04:32:50;45.50;;;20.37;;
70078;SDS011;57451;52.496;13.456;2023-02-11T04:35:17;43.78;;;18.98;;
70078;SDS011;57451;52.496;13.456;2023-02-11T04:37:44;49.80;;;21.48;;
70078;SDS011;57451;52.496;13.456;2023-02-11T04:40:12;45.67;;;20.98;;
70078;SDS011;57451;52.496;13.456;2023-02-11T04:42:40;42.35;;;17.95;;
70078;SDS011;57451;52.496;13.456;2023-02-11T04:45:08;49.90;;;20.70;;
70078;SDS011;57451;52.496;13.456;2023-02-11T04:47:35;43.00;;;19.23;;
70078;SDS011;57451;52.496;13.456;2023-02-11T04:50:03;42.63;;;19.30;;
70078;SDS011;57451;52.496;13.456;2023-02-11T04:52:31;48.50;;;22.17;;
70078;SDS011;57451;52.496;13.456;2023-02-11T04:54:58;39.72;;;20.17;;
70078;SDS011;57451;52.496;13.456;2023-02-11T04:57:26;43.67;;;21.07;;
70078;SDS011;57451;52.496;13.456;2023-02-11T04:59:54;39.45;;;17.65;;
70078;SDS011;57451;52.496;13.456;2023-02-11T05:02:21;37.67;;;16.15;;
70078;SDS011;57451;52.496;13.456;2023-02-11T05:04:49;41.08;;;18.85;;
70078;SDS011;57451;52.496;13.456;2023-02-11T05:07:16;49.78;;;22.38;;
70078;SDS011;57451;52.496;13.456;2023-02-11T05:09:43;44.33;;;21.50;;
70078;SDS011;57451;52.496;13.456;2023-02-11T05:12:10;48.40;;;22.40;;
70078;SDS011;57451;52.496;13.456;2023-02-11T05:14:38;47.00;;;21.00;;
70078;SDS011;57451;52.496;13.456;2023-02-11T05:17:06;45.65;;;21.15;;
70078;SDS011;57451;52.496;13.456;2023-02-11T05:19:33;48.03;;;21.33;;
70078;SDS011;57451;52.496;13.456;2023-02-11T05:22:01;52.83;;;21.70;;
70078;SDS011;57451;52.496;13.456;2023-02-11T05:24:29;46.55;;;20.42;;
70078;SDS011;57451;52.496;13.456;2023-02-11T05:26:57;47.00;;;19.75;;
70078;SDS011;57451;52.496;13.456;2023-02-11T05:29:24;51.78;;;23.42;;
70078;SDS011;57451;52.496;13.456;2023-02-11T05:31:51;44.90;;;21.20;;
70078;SDS011;57451;52.496;13.456;2023-02-11T05:34:20;46.63;;;20.37;;
70078;SDS011;57451;52.496;13.456;2023-02-11T05:36:47;44.88;;;21.13;;
70078;SDS011;57451;52.496;13.456;2023-02-11T05:39:14;48.42;;;23.10;;
70078;SDS011;57451;52.496;13.456;2023-02-11T05:41:41;48.40;;;23.60;;
70078;SDS011;57451;52.496;13.456;2023-02-11T05:44:09;44.17;;;20.10;;
70078;SDS011;57451;52.496;13.456;2023-02-11T05:46:36;48.67;;;22.30;;
70078;SDS011;57451;52.496;13.456;2023-02-11T05:49:04;46.20;;;21.20;;
70078;SDS011;57451;52.496;13.456;2023-02-11T05:51:32;52.58;;;22.58;;
70078;SDS011;57451;52.496;13.456;2023-02-11T05:54:00;50.03;;;23.60;;
70078;SDS011;57451;52.496;13.456;2023-02-11T05:56:27;45.92;;;20.77;;
70078;SDS011;57451;52.496;13.456;2023-02-11T05:58:54;48.17;;;23.70;;
70078;SDS011;57451;52.496;13.456;2023-02-11T06:01:21;35.70;;;14.15;;
70078;SDS011;57451;52.496;13.456;2023-02-11T06:03:49;47.72;;;20.92;;
70078;SDS011;57451;52.496;13.456;2023-02-11T06:06:17;54.38;;;25.35;;
70078;SDS011;57451;52.496;13.456;2023-02-11T06:08:45;41.35;;;17.67;;
70078;SDS011;57451;52.496;13.456;2023-02-11T06:11:13;56.43;;;24.73;;
70078;SDS011;57451;52.496;13.456;2023-02-11T06:13:41;57.17;;;25.23;;
70078;SDS011;57451;52.496;13.456;2023-02-11T06:16:08;40.42;;;19.77;;
70078;SDS011;57451;52.496;13.456;2023-02-11T06:18:36;49.47;;;24.85;;
70078;SDS011;57451;52.496;13.456;2023-02-11T06:21:05;51.35;;;24.45;;
70078;SDS011;57451;52.496;13.456;2023-02-11T06:23:32;49.93;;;22.63;;
70078;SDS011;57451;52.496;13.456;2023-02-11T06:26:02;46.15;;;20.73;;
70078;SDS011;57451;52.496;13.456;2023-02-11T06:28:30;53.30;;;25.40;;
70078;SDS011;57451;52.496;13.456;2023-02-11T06:30:57;53.80;;;24.38;;
70078;SDS011;57451;52.496;13.456;2023-02-11T06:33:30;53.40;;;25.35;;
70078;SDS011;57451;52.496;13.456;2023-02-11T06:35:57;54.30;;;25.23;;
70078;SDS011;57451;52.496;13.456;2023-02-11T06:38:24;51.08;;;24.75;;
70078;SDS011;57451;52.496;13.456;2023-02-11T06:40:51;48.25;;;21.20;;
70078;SDS011;57451;52.496;13.456;2023-02-11T06:43:20;50.92;;;22.88;;
70078;SDS011;57451;52.496;13.456;2023-02-11T06:45:50;55.17;;;24.67;;
70078;SDS011;57451;52.496;13.456;2023-02-11T06:48:19;49.60;;;21.50;;
70078;SDS011;57451;52.496;13.456;2023-02-11T06:50:46;50.78;;;23.48;;
70078;SDS011;57451;52.496;13.456;2023-02-11T06:53:13;38.33;;;17.08;;
70078;SDS011;57451;52.496;13.456;2023-02-11T06:55:40;45.67;;;19.10;;
70078;SDS011;57451;52.496;13.456;2023-02-11T06:58:08;56.67;;;25.50;;
70078;SDS011;57451;52.496;13.456;2023-02-11T07:00:36;53.63;;;25.67;;
70078;SDS011;57451;52.496;13.456;2023-02-11T07:03:04;54.28;;;25.20;;
70078;SDS011;57451;52.496;13.456;2023-02-11T07:05:31;48.55;;;22.00;;
70078;SDS011;57451;52.496;13.456;2023-02-11T07:07:59;39.55;;;18.25;;
70078;SDS011;57451;52.496;13.456;2023-02-11T07:10:27;53.22;;;23.77;;
70078;SDS011;57451;52.496;13.456;2023-02-11T07:12:54;49.30;;;22.73;;
70078;SDS011;57451;52.496;13.456;2023-02-11T07:15:24;37.33;;;16.98;;
70078;SDS011;57451;52.496;13.456;2023-02-11T07:17:53;56.90;;;25.20;;
70078;SDS011;57451;52.496;13.456;2023-02-11T07:20:20;58.00;;;24.90;;
70078;SDS011;57451;52.496;13.456;2023-02-11T07:22:53;46.72;;;20.60;;
70078;SDS011;57451;52.496;13.456;2023-02-11T07:25:20;58.00;;;26.00;;
70078;SDS011;57451;52.496;13.456;2023-02-11T07:27:47;53.40;;;24.13;;
70078;SDS011;57451;52.496;13.456;2023-02-11T07:30:15;57.58;;;26.90;;
70078;SDS011;57451;52.496;13.456;2023-02-11T07:32:43;50.60;;;21.92;;
70078;SDS011;57451;52.496;13.456;2023-02-11T07:35:11;55.92;;;25.13;;
70078;SDS011;57451;52.496;13.456;2023-02-11T07:37:39;44.93;;;20.73;;
70078;SDS011;57451;52.496;13.456;2023-02-11T07:40:07;57.05;;;24.15;;
70078;SDS011;57451;52.496;13.456;2023-02-11T07:42:35;57.90;;;24.88;;
70078;SDS011;57451;52.496;13.456;2023-02-11T07:45:02;58.28;;;25.10;;
70078;SDS011;57451;52.496;13.456;2023-02-11T07:47:30;48.20;;;20.77;;
70078;SDS011;57451;52.496;13.456;2023-02-11T07:49:57;51.23;;;23.77;;
70078;SDS011;57451;52.496;13.456;2023-02-11T07:52:26;56.08;;;24.95;;
70078;SDS011;57451;52.496;13.456;2023-02-11T07:54:55;50.58;;;23.13;;
70078;SDS011;57451;52.496;13.456;2023-02-11T07:57:22;53.80;;;22.80;;
70078;SDS011;57451;52.496;13.456;2023-02-11T07:59:49;47.97;;;21.42;;
70078;SDS011;57451;52.496;13.456;2023-02-11T08:02:17;47.43;;;21.90;;
70078;SDS011;57451;52.496;13.456;2023-02-11T08:04:44;51.30;;;24.98;;
70078;SDS011;57451;52.496;13.456;2023-02-11T08:07:13;50.33;;;22.95;;
70078;SDS011;57451;52.496;13.456;2023-02-11T08:09:42;44.88;;;18.77;;
70078;SDS011;57451;52.496;13.456;2023-02-11T08:12:09;55.72;;;25.02;;
70078;SDS011;57451;52.496;13.456;2023-02-11T08:14:37;48.70;;;20.57;;
70078;SDS011;57451;52.496;13.456;2023-02-11T08:17:04;55.53;;;23.45;;
70078;SDS011;57451;52.496;13.456;2023-02-11T08:19:31;52.83;;;23.98;;
70078;SDS011;57451;52.496;13.456;2023-02-11T08:22:01;48.92;;;22.25;;
70078;SDS011;57451;52.496;13.456;2023-02-11T08:24:28;54.45;;;25.55;;
70078;SDS011;57451;52.496;13.456;2023-02-11T08:26:56;48.83;;;23.03;;
70078;SDS011;57451;52.496;13.456;2023-02-11T08:29:24;56.88;;;24.52;;
70078;SDS011;57451;52.496;13.456;2023-02-11T08:31:51;53.25;;;24.40;;
70078;SDS011;57451;52.496;13.456;2023-02-11T08:34:18;51.60;;;23.10;;
70078;SDS011;57451;52.496;13.456;2023-02-11T08:36:46;41.17;;;18.17;;
70078;SDS011;57451;52.496;13.456;2023-02-11T08:39:15;56.63;;;24.93;;
70078;SDS011;57451;52.496;13.456;2023-02-11T08:41:46;50.22;;;20.90;;
70078;SDS011;57451;52.496;13.456;2023-02-11T08:44:16;46.67;;;20.60;;
70078;SDS011;57451;52.496;13.456;2023-02-11T08:46:43;47.92;;;22.23;;
70078;SDS011;57451;52.496;13.456;2023-02-11T08:49:11;37.53;;;16.73;;
70078;SDS011;57451;52.496;13.456;2023-02-11T08:51:38;52.43;;;22.90;;
70078;SDS011;57451;52.496;13.456;2023-02-11T08:54:05;50.70;;;23.00;;
70078;SDS011;57451;52.496;13.456;2023-02-11T08:56:35;46.58;;;20.83;;
70078;SDS011;57451;52.496;13.456;2023-02-11T08:59:02;58.00;;;24.20;;
70078;SDS011;57451;52.496;13.456;2023-02-11T09:01:32;39.00;;;16.08;;
70078;SDS011;57451;52.496;13.456;2023-02-11T09:03:59;48.13;;;22.67;;
70078;SDS011;57451;52.496;13.456;2023-02-11T09:06:27;43.80;;;20.00;;
70078;SDS011;57451;52.496;13.456;2023-02-11T09:08:55;52.05;;;22.58;;
70078;SDS011;57451;52.496;13.456;2023-02-11T09:11:25;53.92;;;23.45;;
70078;SDS011;57451;52.496;13.456;2023-02-11T09:13:53;50.55;;;23.50;;
70078;SDS011;57451;52.496;13.456;2023-02-11T09:16:21;45.03;;;19.07;;
70078;SDS011;57451;52.496;13.456;2023-02-11T09:18:52;51.67;;;23.58;;
70078;SDS011;57451;52.496;13.456;2023-02-11T09:21:19;55.63;;;23.35;;
70078;SDS011;57451;52.496;13.456;2023-02-11T09:23:47;48.40;;;20.65;;
70078;SDS011;57451;52.496;13.456;2023-02-11T09:26:15;49.00;;;22.88;;
70078;SDS011;57451;52.496;13.456;2023-02-11T09:28:43;39.57;;;18.00;;
70078;SDS011;57451;52.496;13.456;2023-02-11T09:31:11;48.67;;;22.90;;
70078;SDS011;57451;52.496;13.456;2023-02-11T09:33:41;33.97;;;15.18;;
70078;SDS011;57451;52.496;13.456;2023-02-11T09:36:15;43.97;;;18.83;;
70078;SDS011;57451;52.496;13.456;2023-02-11T09:38:45;49.72;;;22.48;;
70078;SDS011;57451;52.496;13.456;2023-02-11T09:41:22;31.20;;;14.77;;
70078;SDS011;57451;52.496;13.456;2023-02-11T09:43:59;43.67;;;20.45;;
70078;SDS011;57451;52.496;13.456;2023-02-11T09:46:31;46.45;;;21.33;;
70078;SDS011;57451;52.496;13.456;2023-02-11T09:49:01;51.33;;;21.73;;
70078;SDS011;57451;52.496;13.456;2023-02-11T09:51:34;42.33;;;20.45;;
70078;SDS011;57451;52.496;13.456;2023-02-11T09:54:06;34.30;;;15.13;;
70078;SDS011;57451;52.496;13.456;2023-02-11T09:56:39;41.45;;;19.92;;
70078;SDS011;57451;52.496;13.456;2023-02-11T09:59:09;54.78;;;21.75;;
70078;SDS011;57451;52.496;13.456;2023-02-11T10:01:40;50.67;;;22.73;;
70078;SDS011;57451;52.496;13.456;2023-02-11T10:04:13;44.60;;;20.90;;
70078;SDS011;57451;52.496;13.456;2023-02-11T10:06:52;28.70;;;14.43;;
70078;SDS011;57451;52.496;13.456;2023-02-11T10:09:31;52.33;;;21.45;;
70078;SDS011;57451;52.496;13.456;2023-02-11T10:12:22;48.05;;;21.05;;
70078;SDS011;57451;52.496;13.456;2023-02-11T10:15:04;44.10;;;21.23;;
70078;SDS011;57451;52.496;13.456;2023-02-11T10:17:42;47.95;;;21.40;;
70078;SDS011;57451;52.496;13.456;2023-02-11T10:20:28;45.37;;;20.97;;
70078;SDS011;57451;52.496;13.456;2023-02-11T10:23:00;47.65;;;20.02;;
70078;SDS011;57451;52.496;13.456;2023-02-11T10:25:36;45.00;;;20.38;;
70078;SDS011;57451;52.496;13.456;2023-02-11T10:28:09;39.72;;;17.65;;
70078;SDS011;57451;52.496;13.456;2023-02-11T10:30:40;45.28;;;21.15;;
70078;SDS011;57451;52.496;13.456;2023-02-11T10:33:12;45.40;;;21.00;;
70078;SDS011;57451;52.496;13.456;2023-02-11T10:35:46;43.03;;;18.42;;
70078;SDS011;57451;52.496;13.456;2023-02-11T10:38:14;41.78;;;20.08;;
70078;SDS011;57451;52.496;13.456;2023-02-11T10:40:41;47.33;;;20.48;;
70078;SDS011;57451;52.496;13.456;2023-02-11T10:43:09;45.80;;;20.95;;
70078;SDS011;57451;52.496;13.456;2023-02-11T10:45:40;43.03;;;19.70;;
70078;SDS011;57451;52.496;13.456;2023-02-11T10:51:07;46.50;;;20.83;;
70078;SDS011;57451;52.496;13.456;2023-02-11T10:53:45;45.53;;;21.80;;
70078;SDS011;57451;52.496;13.456;2023-02-11T10:56:18;41.05;;;19.85;;
70078;SDS011;57451;52.496;13.456;2023-02-11T10:58:53;38.67;;;19.23;;
70078;SDS011;57451;52.496;13.456;2023-02-11T11:01:35;43.05;;;18.80;;
70078;SDS011;57451;52.496;13.456;2023-02-11T11:04:20;32.55;;;15.65;;
70078;SDS011;57451;52.496;13.456;2023-02-11T11:07:08;41.30;;;18.38;;
70078;SDS011;57451;52.496;13.456;2023-02-11T11:09:44;43.35;;;20.55;;
70078;SDS011;57451;52.496;13.456;2023-02-11T11:12:23;38.40;;;18.13;;
70078;SDS011;57451;52.496;13.456;2023-02-11T11:14:56;43.20;;;19.17;;
70078;SDS011;57451;52.496;13.456;2023-02-11T11:17:24;43.97;;;19.90;;
70078;SDS011;57451;52.496;13.456;2023-02-11T11:20:13;34.50;;;15.75;;
70078;SDS011;57451;52.496;13.456;2023-02-11T11:22:44;41.97;;;20.15;;
70078;SDS011;57451;52.496;13.456;2023-02-11T11:25:22;35.67;;;17.23;;
70078;SDS011;57451;52.496;13.456;2023-02-11T11:27:53;33.08;;;15.32;;
70078;SDS011;57451;52.496;13.456;2023-02-11T11:30:22;39.33;;;17.27;;
70078;SDS011;57451;52.496;13.456;2023-02-11T11:32:53;35.03;;;15.57;;
70078;SDS011;57451;52.496;13.456;2023-02-11T11:35:23;29.25;;;12.65;;
70078;SDS011;57451;52.496;13.456;2023-02-11T11:37:54;30.30;;;12.70;;
70078;SDS011;57451;52.496;13.456;2023-02-11T11:40:29;33.08;;;16.15;;
70078;SDS011;57451;52.496;13.456;2023-02-11T11:43:01;36.00;;;16.30;;
70078;SDS011;57451;52.496;13.456;2023-02-11T11:45:31;37.70;;;16.98;;
70078;SDS011;57451;52.496;13.456;2023-02-11T11:47:59;34.17;;;16.35;;
70078;SDS011;57451;52.496;13.456;2023-02-11T11:50:33;30.47;;;15.20;;
70078;SDS011;57451;52.496;13.456;2023-02-11T11:53:03;31.52;;;15.93;;
70078;SDS011;57451;52.496;13.456;2023-02-11T11:55:39;34.47;;;16.58;;
70078;SDS011;57451;52.496;13.456;2023-02-11T11:58:12;16.40;;;8.13;;
70078;SDS011;57451;52.496;13.456;2023-02-11T12:00:43;34.03;;;15.77;;
70078;SDS011;57451;52.496;13.456;2023-02-11T12:03:26;29.00;;;14.93;;
70078;SDS011;57451;52.496;13.456;2023-02-11T12:06:20;20.13;;;9.85;;
70078;SDS011;57451;52.496;13.456;2023-02-11T12:08:59;25.38;;;10.77;;
70078;SDS011;57451;52.496;13.456;2023-02-11T12:11:36;32.67;;;14.95;;
70078;SDS011;57451;52.496;13.456;2023-02-11T12:14:19;33.28;;;15.02;;
70078;SDS011;57451;52.496;13.456;2023-02-11T12:16:55;28.47;;;13.60;;
70078;SDS011;57451;52.496;13.456;2023-02-11T12:19:38;32.60;;;15.15;;
70078;SDS011;57451;52.496;13.456;2023-02-11T12:22:27;32.72;;;15.52;;
70078;SDS011;57451;52.496;13.456;2023-02-11T12:25:06;27.50;;;12.82;;
70078;SDS011;57451;52.496;13.456;2023-02-11T12:27:49;29.13;;;14.23;;
70078;SDS011;57451;52.496;13.456;2023-02-11T12:30:27;30.37;;;12.80;;
70078;SDS011;57451;52.496;13.456;2023-02-11T12:33:15;26.92;;;12.88;;
70078;SDS011;57451;52.496;13.456;2023-02-11T12:35:54;27.70;;;12.73;;
70078;SDS011;57451;52.496;13.456;2023-02-11T12:38:31;26.33;;;12.18;;
70078;SDS011;57451;52.496;13.456;2023-02-11T12:41:14;28.80;;;12.95;;
70078;SDS011;57451;52.496;13.456;2023-02-11T12:44:15;27.60;;;12.67;;
70078;SDS011;57451;52.496;13.456;2023-02-11T12:46:48;28.40;;;13.45;;
70078;SDS011;57451;52.496;13.456;2023-02-11T12:49:30;29.55;;;13.20;;
70078;SDS011;57451;52.496;13.456;2023-02-11T12:52:11;19.27;;;9.38;;
70078;SDS011;57451;52.496;13.456;2023-02-11T12:54:51;28.00;;;12.68;;
70078;SDS011;57451;52.496;13.456;2023-02-11T12:57:24;25.13;;;12.50;;
70078;SDS011;57451;52.496;13.456;2023-02-11T12:59:56;22.58;;;11.77;;
70078;SDS011;57451;52.496;13.456;2023-02-11T13:02:30;28.65;;;12.68;;
70078;SDS011;57451;52.496;13.456;2023-02-11T13:05:03;27.75;;;13.20;;
70078;SDS011;57451;52.496;13.456;2023-02-11T13:07:40;29.27;;;13.93;;
70078;SDS011;57451;52.496;13.456;2023-02-11T13:10:15;25.00;;;13.07;;
70078;SDS011;57451;52.496;13.456;2023-02-11T13:12:52;22.30;;;9.00;;
70078;SDS011;57451;52.496;13.456;2023-02-11T13:15:41;26.23;;;12.68;;
70078;SDS011;57451;52.496;13.456;2023-02-11T13:18:13;23.60;;;12.80;;
70078;SDS011;57451;52.496;13.456;2023-02-11T13:20:48;28.20;;;13.30;;
70078;SDS011;57451;52.496;13.456;2023-02-11T13:23:22;29.70;;;12.80;;
70078;SDS011;57451;52.496;13.456;2023-02-11T13:25:54;23.13;;;11.13;;
70078;SDS011;57451;52.496;13.456;2023-02-11T13:28:31;20.95;;;11.60;;
70078;SDS011;57451;52.496;13.456;2023-02-11T13:31:08;23.60;;;12.07;;
70078;SDS011;57451;52.496;13.456;2023-02-11T13:33:38;22.15;;;11.48;;
70078;SDS011;57451;52.496;13.456;2023-02-11T13:36:09;24.13;;;12.60;;
70078;SDS011;57451;52.496;13.456;2023-02-11T13:38:39;24.20;;;11.82;;
70078;SDS011;57451;52.496;13.456;2023-02-11T13:41:17;23.65;;;12.48;;
70078;SDS011;57451;52.496;13.456;2023-02-11T13:43:58;25.98;;;12.32;;
70078;SDS011;57451;52.496;13.456;2023-02-11T13:46:46;25.45;;;12.40;;
70078;SDS011;57451;52.496;13.456;2023-02-11T13:49:20;22.40;;;11.43;;
70078;SDS011;57451;52.496;13.456;2023-02-11T13:51:50;23.30;;;12.57;;
70078;SDS011;57451;52.496;13.456;2023-02-11T13:54:20;22.58;;;12.25;;
70078;SDS011;57451;52.496;13.456;2023-02-11T13:59:52;22.00;;;11.48;;
70078;SDS011;57451;52.496;13.456;2023-02-11T14:02:23;21.20;;;11.20;;
70078;SDS011;57451;52.496;13.456;2023-02-11T14:05:20;26.75;;;12.00;;
70078;SDS011;57451;52.496;13.456;2023-02-11T14:08:15;24.90;;;12.70;;
70078;SDS011;57451;52.496;13.456;2023-02-11T14:11:41;23.00;;;11.10;;
70078;SDS011;57451;52.496;13.456;2023-02-11T14:14:15;19.85;;;10.65;;
70078;SDS011;57451;52.496;13.456;2023-02-11T14:19:45;21.23;;;10.65;;
70078;SDS011;57451;52.496;13.456;2023-02-11T14:22:13;20.25;;;10.30;;
70078;SDS011;57451;52.496;13.456;2023-02-11T14:24:47;19.85;;;10.77;;
70078;SDS011;57451;52.496;13.456;2023-02-11T14:27:19;20.55;;;10.15;;
70078;SDS011;57451;52.496;13.456;2023-02-11T14:29:58;22.43;;;10.33;;
70078;SDS011;57451;52.496;13.456;2023-02-11T14:32:37;22.38;;;10.68;;
70078;SDS011;57451;52.496;13.456;2023-02-11T14:35:19;23.63;;;10.93;;
70078;SDS011;57451;52.496;13.456;2023-02-11T14:37:54;20.40;;;10.63;;
70078;SDS011;57451;52.496;13.456;2023-02-11T14:40:28;22.60;;;10.57;;
70078;SDS011;57451;52.496;13.456;2023-02-11T14:43:00;18.63;;;10.23;;
70078;SDS011;57451;52.496;13.456;2023-02-11T14:45:37;14.80;;;8.35;;
70078;SDS011;57451;52.496;13.456;2023-02-11T14:48:06;17.48;;;9.80;;